createdAt,value
2023-02-03T00:03:59.565Z,98920.33
2023-02-03T00:05:01.651Z,98916.82
2023-02-03T00:06:04.670Z,98920.69
2023-02-03T00:07:06.665Z,98919.59
2023-02-03T00:08:09.980Z,98920.47
2023-02-03T00:09:12.392Z,98921.91
2023-02-03T00:10:14.949Z,98921.01
2023-02-03T00:11:16.938Z,98918.94
2023-02-03T00:12:18.850Z,98920.95
2023-02-03T00:13:21.560Z,98920.91
2023-02-03T00:14:23.296Z,98921.32
2023-02-03T00:15:25.366Z,98922.73
2023-02-03T00:16:27.386Z,98918.33
2023-02-03T00:17:29.384Z,98916.86
2023-02-03T00:18:31.260Z,98920.21
2023-02-03T00:19:33.137Z,98920.41
2023-02-03T00:20:35.017Z,98922.85
2023-02-03T00:21:36.886Z,98923.71
2023-02-03T00:22:38.736Z,98924.70
2023-02-03T00:23:41.793Z,98924.54
2023-02-03T00:24:43.584Z,98925.71
2023-02-03T00:25:45.493Z,98925.23
2023-02-03T00:26:47.232Z,98926.14
2023-02-03T00:27:49.046Z,98927.84
2023-02-03T00:28:50.801Z,98930.16
2023-02-03T00:29:52.616Z,98929.00
2023-02-03T00:30:54.425Z,98928.98
2023-02-03T00:31:56.716Z,98931.50
2023-02-03T00:32:58.949Z,98931.70
2023-02-03T00:34:00.847Z,98932.27
2023-02-03T00:35:02.936Z,98933.73
2023-02-03T00:36:06.195Z,98932.99
2023-02-03T00:37:08.009Z,98930.96
2023-02-03T00:38:09.849Z,98934.04
2023-02-03T00:39:12.450Z,98934.30
2023-02-03T00:40:14.572Z,98929.83
2023-02-03T00:41:18.170Z,98928.97
2023-02-03T00:42:20.017Z,98924.80
2023-02-03T00:43:21.897Z,98926.67
2023-02-03T00:44:23.836Z,98924.81
2023-02-03T00:45:26.351Z,98925.05
2023-02-03T00:46:28.224Z,98927.98
2023-02-03T00:47:30.186Z,98928.13
2023-02-03T00:48:32.215Z,98927.48
2023-02-03T00:49:34.137Z,98926.05
2023-02-03T00:50:35.927Z,98927.84
2023-02-03T00:51:37.718Z,98924.79
2023-02-03T00:52:39.659Z,98928.05
2023-02-03T00:53:41.462Z,98918.52
2023-02-03T00:54:43.436Z,98924.27
2023-02-03T00:55:45.296Z,98919.51
2023-02-03T00:56:46.984Z,98919.94
2023-02-03T00:57:48.871Z,98925.48
2023-02-03T00:58:50.852Z,98928.34
2023-02-03T00:59:52.754Z,98928.92
2023-02-03T01:00:57.353Z,98926.61
2023-02-03T01:02:00.847Z,98927.09
2023-02-03T01:03:03.420Z,98926.43
2023-02-03T01:04:05.483Z,98926.64
2023-02-03T01:05:09.122Z,98921.70
2023-02-03T01:06:15.444Z,98923.90
2023-02-03T01:07:17.592Z,98924.84
2023-02-03T01:08:20.078Z,98921.95
2023-02-03T01:09:22.009Z,98921.77
2023-02-03T01:10:24.099Z,98922.55
2023-02-03T01:11:27.900Z,98919.84
2023-02-03T01:12:31.167Z,98916.83
2023-02-03T01:13:33.692Z,98915.73
2023-02-03T01:14:35.546Z,98916.09
2023-02-03T01:15:47.442Z,98913.45
2023-02-03T01:16:49.398Z,98912.23
2023-02-03T01:17:52.259Z,98909.59
2023-02-03T01:18:55.656Z,98912.04
2023-02-03T01:19:57.480Z,98912.70
2023-02-03T01:21:06.368Z,98910.46
2023-02-03T01:22:08.330Z,98909.65
2023-02-03T01:23:10.228Z,98906.23
2023-02-03T01:24:12.284Z,98904.85
2023-02-03T01:25:14.178Z,98901.16
2023-02-03T01:26:19.504Z,98896.70
2023-02-03T01:27:22.767Z,98890.59
2023-02-03T01:28:24.569Z,98887.84
2023-02-03T01:29:27.748Z,98890.55
2023-02-03T01:30:30.401Z,98888.39
2023-02-03T01:31:39.913Z,98889.73
2023-02-03T01:32:42.283Z,98890.62
2023-02-03T01:33:48.819Z,98889.79
2023-02-03T01:34:50.747Z,98886.40
2023-02-03T01:35:52.662Z,98893.16
2023-02-03T01:36:54.624Z,98887.04
2023-02-03T01:37:57.461Z,98893.04
2023-02-03T01:38:59.348Z,98890.90
2023-02-03T01:40:01.330Z,98894.91
2023-02-03T01:41:04.349Z,98893.48
2023-02-03T01:42:06.182Z,98893.52
2023-02-03T01:43:10.091Z,98897.20
2023-02-03T01:44:33.688Z,98897.61
2023-02-03T01:45:35.468Z,98902.16
2023-02-03T01:46:44.657Z,98897.72
2023-02-03T01:47:48.227Z,98895.85
2023-02-03T01:48:51.731Z,98898.71
2023-02-03T01:50:27.684Z,98894.83
2023-02-03T01:51:30.616Z,98898.84
2023-02-03T01:52:33.337Z,98895.66
2023-02-03T01:53:35.305Z,98896.08
2023-02-03T01:54:44.052Z,98893.91
2023-02-03T01:55:50.324Z,98893.78
2023-02-03T01:57:00.989Z,98885.52
2023-02-03T01:58:12.997Z,98886.54
2023-02-03T01:59:19.729Z,98888.76
2023-02-03T02:00:22.155Z,98886.20
2023-02-03T02:01:24.131Z,98888.02
2023-02-03T02:02:26.761Z,98883.36
2023-02-03T02:03:38.248Z,98885.15
2023-02-03T02:05:01.881Z,98884.25
2023-02-03T02:06:10.617Z,98879.11
2023-02-03T02:07:16.511Z,98879.31
2023-02-03T02:08:22.423Z,98880.45
2023-02-03T02:09:26.753Z,98882.36
2023-02-03T02:10:33.557Z,98880.11
2023-02-03T02:11:35.465Z,98880.60
2023-02-03T02:12:37.693Z,98880.52
2023-02-03T02:13:43.030Z,98879.13
2023-02-03T02:14:47.699Z,98874.52
2023-02-03T02:16:17.914Z,98873.79
2023-02-03T02:17:42.699Z,98868.25
2023-02-03T02:19:36.226Z,98867.54
2023-02-03T02:21:00.095Z,98857.44
2023-02-03T02:22:20.850Z,98855.59
2023-02-03T02:23:37.199Z,98850.77
2023-02-03T02:24:55.150Z,98852.24
2023-02-03T02:26:09.292Z,98841.72
2023-02-03T02:27:35.416Z,98837.38
2023-02-03T02:29:20.241Z,98832.41
2023-02-03T02:31:22.181Z,98831.48
2023-02-03T02:32:46.401Z,98826.96
2023-02-03T02:34:02.634Z,98827.29
2023-02-03T02:35:23.767Z,98828.02
2023-02-03T02:36:37.652Z,98829.61
2023-02-03T02:38:07.684Z,98824.24
2023-02-03T02:39:29.398Z,98826.73
2023-02-03T02:40:49.818Z,98829.44
2023-02-03T02:42:11.273Z,98834.73
2023-02-03T02:43:39.879Z,98834.58
2023-02-03T02:44:50.668Z,98834.12
2023-02-03T02:46:30.805Z,98828.48
2023-02-03T02:47:33.827Z,98829.64
2023-02-03T02:48:45.839Z,98833.18
2023-02-03T02:50:01.094Z,98834.58
2023-02-03T02:51:08.622Z,98839.21
2023-02-03T02:52:16.961Z,98843.52
2023-02-03T02:53:24.698Z,98844.83
2023-02-03T02:54:31.495Z,98843.56
2023-02-03T02:55:40.077Z,98845.58
2023-02-03T02:56:48.248Z,98846.06
2023-02-03T02:57:55.675Z,98845.80
2023-02-03T02:59:02.836Z,98844.23
2023-02-03T03:00:06.051Z,98841.48
2023-02-03T03:01:11.837Z,98840.30
2023-02-03T03:02:13.732Z,98840.16
2023-02-03T03:03:24.412Z,98840.64
2023-02-03T03:04:30.366Z,98841.36
2023-02-03T03:05:34.494Z,98840.25
2023-02-03T03:06:44.868Z,98841.74
2023-02-03T03:08:02.781Z,98841.98
2023-02-03T03:09:15.066Z,98843.08
2023-02-03T03:10:27.366Z,98836.48
2023-02-03T03:11:36.334Z,98835.26
2023-02-03T03:12:48.419Z,98828.39
2023-02-03T03:13:56.145Z,98827.60
2023-02-03T03:15:04.753Z,98822.38
2023-02-03T03:16:11.203Z,98821.84
2023-02-03T03:17:22.088Z,98818.14
2023-02-03T03:18:32.048Z,98813.88
2023-02-03T03:19:50.685Z,98812.02
2023-02-03T03:20:57.428Z,98809.13
2023-02-03T03:22:03.874Z,98811.33
2023-02-03T03:23:33.684Z,98806.83
2023-02-03T03:24:45.725Z,98809.02
2023-02-03T03:25:57.844Z,98808.44
2023-02-03T03:27:17.346Z,98799.78
2023-02-03T03:28:36.535Z,98800.27
2023-02-03T03:30:12.794Z,98801.92
2023-02-03T03:31:17.984Z,98793.98
2023-02-03T03:32:22.084Z,98791.11
2023-02-03T03:33:24.094Z,98788.08
2023-02-03T03:34:26.233Z,98786.47
2023-02-03T03:35:53.343Z,98785.45
2023-02-03T03:37:20.848Z,98789.77
2023-02-03T03:38:33.621Z,98787.53
2023-02-03T03:39:47.306Z,98789.98
2023-02-03T03:40:59.728Z,98790.19
2023-02-03T03:42:12.661Z,98790.47
2023-02-03T03:43:23.960Z,98791.44
2023-02-03T03:44:32.919Z,98789.03
2023-02-03T03:45:49.323Z,98785.77
2023-02-03T03:47:33.986Z,98782.41
2023-02-03T03:49:05.447Z,98780.13
2023-02-03T03:50:15.665Z,98776.70
2023-02-03T03:51:24.209Z,98781.43
2023-02-03T03:52:30.809Z,98781.48
2023-02-03T03:53:39.243Z,98779.39
2023-02-03T03:54:44.684Z,98779.86
2023-02-03T03:55:52.670Z,98782.44
2023-02-03T03:57:26.884Z,98779.14
2023-02-03T03:58:32.042Z,98780.48
2023-02-03T03:59:40.645Z,98779.13
2023-02-03T04:00:45.759Z,98777.26
2023-02-03T04:01:50.033Z,98777.20
2023-02-03T04:02:56.950Z,98777.03
2023-02-03T04:04:05.763Z,98776.60
2023-02-03T04:05:12.058Z,98780.38
2023-02-03T04:06:14.749Z,98777.36
2023-02-03T04:07:16.663Z,98781.90
2023-02-03T04:08:18.564Z,98786.54
2023-02-03T04:09:20.853Z,98783.67
2023-02-03T04:10:31.953Z,98788.04
2023-02-03T04:11:53.917Z,98788.33
2023-02-03T04:12:55.909Z,98789.64
2023-02-03T04:13:57.999Z,98791.72
2023-02-03T04:14:59.672Z,98791.92
2023-02-03T04:16:01.511Z,98793.60
2023-02-03T04:17:03.759Z,98792.15
2023-02-03T04:18:06.238Z,98793.16
2023-02-03T04:19:08.624Z,98793.44
2023-02-03T04:20:11.142Z,98790.33
2023-02-03T04:21:12.829Z,98788.05
2023-02-03T04:22:14.651Z,98786.70
2023-02-03T04:23:16.730Z,98786.70
2023-02-03T04:24:18.728Z,98784.50
2023-02-03T04:25:21.503Z,98783.23
2023-02-03T04:26:23.962Z,98782.33
2023-02-03T04:27:27.215Z,98782.99
2023-02-03T04:28:29.111Z,98776.15
2023-02-03T04:29:30.817Z,98773.59
2023-02-03T04:30:33.400Z,98770.55
2023-02-03T04:31:35.365Z,98766.82
2023-02-03T04:32:37.225Z,98766.72
2023-02-03T04:33:39.045Z,98763.98
2023-02-03T04:34:40.797Z,98765.37
2023-02-03T04:35:42.536Z,98762.20
2023-02-03T04:36:44.300Z,98761.14
2023-02-03T04:37:46.374Z,98763.45
2023-02-03T04:38:51.928Z,98759.39
2023-02-03T04:39:55.529Z,98760.62
2023-02-03T04:40:57.324Z,98761.35
2023-02-03T04:41:59.073Z,98758.82
2023-02-03T04:43:07.389Z,98757.39
2023-02-03T04:44:09.478Z,98757.92
2023-02-03T04:45:12.736Z,98756.25
2023-02-03T04:46:14.865Z,98754.20
2023-02-03T04:47:17.291Z,98752.58
2023-02-03T04:48:19.159Z,98754.33
2023-02-03T04:49:21.222Z,98750.34
2023-02-03T04:50:22.991Z,98754.83
2023-02-03T04:51:24.821Z,98754.45
2023-02-03T04:52:26.908Z,98751.83
2023-02-03T04:53:29.069Z,98748.48
2023-02-03T04:54:30.876Z,98744.15
2023-02-03T04:55:32.835Z,98745.00
2023-02-03T04:56:34.576Z,98745.16
2023-02-03T04:57:36.290Z,98743.02
2023-02-03T04:58:38.040Z,98744.64
2023-02-03T04:59:40.009Z,98741.70
2023-02-03T05:00:41.773Z,98740.41
2023-02-03T05:01:43.510Z,98745.09
2023-02-03T05:02:45.173Z,98744.23
2023-02-03T05:03:47.089Z,98740.11
2023-02-03T05:04:48.818Z,98737.61
2023-02-03T05:05:51.084Z,98736.04
2023-02-03T05:06:52.909Z,98739.85
2023-02-03T05:07:54.715Z,98738.05
2023-02-03T05:08:56.551Z,98735.81
2023-02-03T05:09:58.677Z,98733.89
2023-02-03T05:11:02.140Z,98731.02
2023-02-03T05:12:04.286Z,98728.23
2023-02-03T05:13:06.156Z,98725.39
2023-02-03T05:14:08.000Z,98723.19
2023-02-03T05:15:10.213Z,98725.10
2023-02-03T05:16:12.081Z,98721.16
2023-02-03T05:17:13.913Z,98719.77
2023-02-03T05:18:15.679Z,98718.02
2023-02-03T05:19:17.428Z,98718.36
2023-02-03T05:20:19.379Z,98715.02
2023-02-03T05:21:21.539Z,98714.71
2023-02-03T05:22:23.458Z,98714.51
2023-02-03T05:23:25.342Z,98713.16
2023-02-03T05:24:27.171Z,98710.30
2023-02-03T05:25:28.928Z,98709.62
2023-02-03T05:26:30.756Z,98705.21
2023-02-03T05:27:32.708Z,98697.69
2023-02-03T05:28:35.219Z,98695.60
2023-02-03T05:29:36.999Z,98693.69
2023-02-03T05:30:38.960Z,98688.20
2023-02-03T05:31:40.815Z,98689.25
2023-02-03T05:32:42.685Z,98683.31
2023-02-03T05:33:44.601Z,98684.11
2023-02-03T05:34:46.808Z,98682.69
2023-02-03T05:35:48.650Z,98679.59
2023-02-03T05:36:50.930Z,98675.71
2023-02-03T05:37:52.765Z,98673.07
2023-02-03T05:38:54.580Z,98672.34
2023-02-03T05:40:16.397Z,98667.94
2023-02-03T05:41:36.888Z,98668.44
2023-02-03T05:42:38.723Z,98674.06
2023-02-03T05:43:40.514Z,98672.52
2023-02-03T05:44:42.211Z,98672.21
2023-02-03T05:45:44.139Z,98671.41
2023-02-03T05:46:46.123Z,98669.80
2023-02-03T05:47:48.070Z,98666.05
2023-02-03T05:48:50.057Z,98668.97
2023-02-03T05:49:52.156Z,98670.69
2023-02-03T05:50:53.951Z,98667.50
2023-02-03T05:51:56.055Z,98667.11
2023-02-03T05:52:57.839Z,98668.52
2023-02-03T05:53:59.585Z,98667.64
2023-02-03T05:55:01.366Z,98663.92
2023-02-03T05:56:03.196Z,98663.73
2023-02-03T05:57:04.947Z,98660.95
2023-02-03T05:58:06.935Z,98661.94
2023-02-03T05:59:08.885Z,98656.33
2023-02-03T06:00:12.325Z,98653.30
2023-02-03T06:01:14.135Z,98655.90
2023-02-03T06:02:16.002Z,98650.30
2023-02-03T06:03:17.996Z,98652.83
2023-02-03T06:04:19.878Z,98650.71
2023-02-03T06:05:23.642Z,98649.45
2023-02-03T06:06:25.593Z,98647.77
2023-02-03T06:07:27.554Z,98649.43
2023-02-03T06:08:29.365Z,98643.05
2023-02-03T06:09:31.099Z,98641.81
2023-02-03T06:10:33.213Z,98641.52
2023-02-03T06:11:36.423Z,98642.87
2023-02-03T06:12:39.165Z,98644.98
2023-02-03T06:13:40.989Z,98644.28
2023-02-03T06:14:42.846Z,98641.65
2023-02-03T06:15:45.191Z,98639.16
2023-02-03T06:16:47.060Z,98637.54
2023-02-03T06:17:49.324Z,98631.17
2023-02-03T06:18:53.114Z,98634.38
2023-02-03T06:19:54.890Z,98633.27
2023-02-03T06:20:56.889Z,98631.97
2023-02-03T06:21:58.715Z,98633.35
2023-02-03T06:23:01.261Z,98629.66
2023-02-03T06:24:03.799Z,98631.89
2023-02-03T06:25:06.448Z,98630.80
2023-02-03T06:26:08.266Z,98623.85
2023-02-03T06:27:10.069Z,98625.16
2023-02-03T06:28:11.899Z,98625.69
2023-02-03T06:29:13.752Z,98619.98
2023-02-03T06:30:15.698Z,98621.58
2023-02-03T06:31:17.824Z,98617.91
2023-02-03T06:32:19.741Z,98614.67
2023-02-03T06:33:21.657Z,98610.63
2023-02-03T06:34:23.932Z,98609.25
2023-02-03T06:35:25.789Z,98607.20
2023-02-03T06:36:27.476Z,98605.82
2023-02-03T06:37:29.355Z,98604.03
2023-02-03T06:38:31.279Z,98604.23
2023-02-03T06:39:33.157Z,98606.64
2023-02-03T06:40:34.949Z,98602.44
2023-02-03T06:41:36.832Z,98600.29
2023-02-03T06:42:38.921Z,98600.61
2023-02-03T06:43:40.683Z,98593.33
2023-02-03T06:44:42.465Z,98589.57
2023-02-03T06:45:47.399Z,98584.46
2023-02-03T06:46:50.721Z,98585.50
2023-02-03T06:47:52.975Z,98584.54
2023-02-03T06:48:54.775Z,98582.59
2023-02-03T06:49:56.684Z,98582.23
2023-02-03T06:50:58.587Z,98577.98
2023-02-03T06:52:00.410Z,98578.42
2023-02-03T06:53:02.162Z,98582.14
2023-02-03T06:54:04.982Z,98578.84
2023-02-03T06:55:07.626Z,98582.64
2023-02-03T06:56:09.407Z,98579.42
2023-02-03T06:57:11.645Z,98575.72
2023-02-03T06:58:13.804Z,98574.05
2023-02-03T06:59:15.773Z,98568.92
2023-02-03T07:00:19.500Z,98569.36
2023-02-03T07:01:21.644Z,98565.29
2023-02-03T07:02:23.898Z,98562.05
2023-02-03T07:03:25.771Z,98558.55
2023-02-03T07:04:33.221Z,98559.41
2023-02-03T07:05:37.382Z,98554.90
2023-02-03T07:06:39.203Z,98552.95
2023-02-03T07:07:40.955Z,98551.54
2023-02-03T07:08:42.934Z,98552.38
2023-02-03T07:09:44.691Z,98551.77
2023-02-03T07:10:46.518Z,98550.56
2023-02-03T07:11:48.266Z,98547.44
2023-02-03T07:12:51.063Z,98548.48
2023-02-03T07:13:53.511Z,98545.07
2023-02-03T07:14:55.312Z,98544.34
2023-02-03T07:15:57.401Z,98538.92
2023-02-03T07:16:59.224Z,98537.47
2023-02-03T07:18:01.035Z,98534.23
2023-02-03T07:19:04.152Z,98535.75
2023-02-03T07:20:06.312Z,98528.22
2023-02-03T07:21:08.330Z,98530.89
2023-02-03T07:22:12.928Z,98527.52
2023-02-03T07:23:14.895Z,98524.58
2023-02-03T07:24:16.760Z,98521.33
2023-02-03T07:25:18.587Z,98518.19
2023-02-03T07:26:23.223Z,98514.84
2023-02-03T07:27:25.409Z,98514.73
2023-02-03T07:28:27.274Z,98514.92
2023-02-03T07:29:29.058Z,98515.27
2023-02-03T07:30:31.195Z,98516.91
2023-02-03T07:31:33.258Z,98512.52
2023-02-03T07:32:35.719Z,98512.82
2023-02-03T07:33:39.145Z,98507.98
2023-02-03T07:34:41.079Z,98511.34
2023-02-03T07:35:42.798Z,98508.70
2023-02-03T07:36:44.607Z,98508.16
2023-02-03T07:37:47.369Z,98504.24
2023-02-03T07:38:49.077Z,98501.59
2023-02-03T07:39:50.827Z,98497.48
2023-02-03T07:40:56.092Z,98495.57
2023-02-03T07:41:58.520Z,98493.59
2023-02-03T07:43:02.325Z,98492.50
2023-02-03T07:44:04.348Z,98483.80
2023-02-03T07:45:06.473Z,98484.70
2023-02-03T07:46:08.483Z,98484.54
2023-02-03T07:47:12.459Z,98480.14
2023-02-03T07:48:15.019Z,98478.80
2023-02-03T07:49:16.779Z,98476.15
2023-02-03T07:50:18.680Z,98474.98
2023-02-03T07:51:20.567Z,98471.86
2023-02-03T07:52:22.441Z,98468.45
2023-02-03T07:53:26.467Z,98466.84
2023-02-03T07:54:28.276Z,98460.29
2023-02-03T07:55:30.798Z,98459.45
2023-02-03T07:56:33.391Z,98459.67
2023-02-03T07:57:35.334Z,98455.40
2023-02-03T07:58:37.338Z,98453.94
2023-02-03T07:59:39.121Z,98453.61
2023-02-03T08:00:40.918Z,98449.30
2023-02-03T08:01:42.810Z,98448.52
2023-02-03T08:02:45.112Z,98446.73
2023-02-03T08:03:47.000Z,98448.90
2023-02-03T08:04:48.863Z,98442.58
2023-02-03T08:05:52.303Z,98438.23
2023-02-03T08:06:56.566Z,98435.70
2023-02-03T08:07:59.406Z,98432.11
2023-02-03T08:09:01.238Z,98429.96
2023-02-03T08:10:03.774Z,98429.58
2023-02-03T08:11:05.619Z,98429.74
2023-02-03T08:12:07.558Z,98426.73
2023-02-03T08:13:09.437Z,98423.13
2023-02-03T08:14:11.284Z,98416.89
2023-02-03T08:15:14.951Z,98413.34
2023-02-03T08:16:17.116Z,98415.72
2023-02-03T08:17:18.960Z,98411.85
2023-02-03T08:18:20.685Z,98411.61
2023-02-03T08:19:22.594Z,98407.63
2023-02-03T08:20:24.489Z,98406.77
2023-02-03T08:21:26.463Z,98403.45
2023-02-03T08:22:28.534Z,98397.05
2023-02-03T08:23:31.233Z,98401.09
2023-02-03T08:24:33.139Z,98396.48
2023-02-03T08:25:35.019Z,98398.27
2023-02-03T08:26:37.394Z,98392.30
2023-02-03T08:27:40.175Z,98392.63
2023-02-03T08:28:42.022Z,98389.81
2023-02-03T08:29:45.935Z,98384.64
2023-02-03T08:30:47.907Z,98381.10
2023-02-03T08:31:49.878Z,98381.67
2023-02-03T08:32:51.978Z,98376.58
2023-02-03T08:33:55.970Z,98378.70
2023-02-03T08:34:57.816Z,98372.74
2023-02-03T08:36:01.088Z,98372.17
2023-02-03T08:37:03.718Z,98375.60
2023-02-03T08:38:05.603Z,98370.92
2023-02-03T08:39:07.648Z,98365.11
2023-02-03T08:40:10.649Z,98360.35
2023-02-03T08:41:18.335Z,98361.21
2023-02-03T08:42:20.746Z,98359.58
2023-02-03T08:43:22.768Z,98356.64
2023-02-03T08:44:24.827Z,98352.07
2023-02-03T08:45:27.032Z,98352.40
2023-02-03T08:46:28.960Z,98348.08
2023-02-03T08:47:30.804Z,98344.73
2023-02-03T08:48:33.012Z,98342.93
2023-02-03T08:49:35.915Z,98343.98
2023-02-03T08:50:37.758Z,98341.22
2023-02-03T08:51:40.683Z,98338.85
2023-02-03T08:52:42.527Z,98338.81
2023-02-03T08:53:44.361Z,98333.83
2023-02-03T08:54:47.049Z,98331.17
2023-02-03T08:55:48.814Z,98328.89
2023-02-03T08:56:51.643Z,98322.33
2023-02-03T08:57:53.522Z,98323.42
2023-02-03T08:58:56.095Z,98321.48
2023-02-03T08:59:58.116Z,98316.16
2023-02-03T09:01:08.752Z,98312.54
2023-02-03T09:02:15.870Z,98312.16
2023-02-03T09:03:17.601Z,98309.60
2023-02-03T09:04:24.522Z,98306.29
2023-02-03T09:05:26.807Z,98303.55
2023-02-03T09:06:30.161Z,98302.45
2023-02-03T09:07:32.323Z,98303.23
2023-02-03T09:08:36.176Z,98302.23
2023-02-03T09:09:37.937Z,98296.31
2023-02-03T09:10:39.929Z,98296.73
2023-02-03T09:11:42.975Z,98298.64
2023-02-03T09:12:44.804Z,98298.29
2023-02-03T09:13:46.677Z,98294.55
2023-02-03T09:14:48.667Z,98292.80
2023-02-03T09:15:50.891Z,98291.09
2023-02-03T09:16:53.104Z,98291.04
2023-02-03T09:17:56.951Z,98287.69
2023-02-03T09:18:58.945Z,98289.10
2023-02-03T09:20:00.891Z,98283.52
2023-02-03T09:21:07.183Z,98278.94
2023-02-03T09:22:09.470Z,98276.58
2023-02-03T09:23:11.507Z,98276.42
2023-02-03T09:24:13.304Z,98274.20
2023-02-03T09:25:16.321Z,98270.67
2023-02-03T09:26:18.452Z,98264.61
2023-02-03T09:27:20.149Z,98262.88
2023-02-03T09:28:21.961Z,98257.89
2023-02-03T09:29:24.241Z,98257.56
2023-02-03T09:30:26.960Z,98250.98
2023-02-03T09:31:28.955Z,98252.01
2023-02-03T09:32:30.879Z,98247.64
2023-02-03T09:33:33.377Z,98250.95
2023-02-03T09:34:35.187Z,98248.20
2023-02-03T09:35:37.018Z,98245.59
2023-02-03T09:36:39.239Z,98242.73
2023-02-03T09:37:41.830Z,98239.54
2023-02-03T09:38:43.664Z,98237.78
2023-02-03T09:39:45.662Z,98234.46
2023-02-03T09:41:09.306Z,98236.45
2023-02-03T09:42:31.951Z,98234.55
2023-02-03T09:43:55.178Z,98232.95
2023-02-03T09:45:17.934Z,98231.52
2023-02-03T09:46:25.940Z,98223.95
2023-02-03T09:47:33.810Z,98222.66
2023-02-03T09:48:43.910Z,98214.84
2023-02-03T09:49:55.693Z,98211.54
2023-02-03T09:50:57.635Z,98207.15
2023-02-03T09:52:09.332Z,98205.98
2023-02-03T09:53:45.233Z,98204.07
2023-02-03T09:55:34.169Z,98199.02
2023-02-03T09:56:39.483Z,98196.94
2023-02-03T09:57:55.972Z,98195.44
2023-02-03T09:58:58.326Z,98192.33
2023-02-03T10:00:13.939Z,98189.79
2023-02-03T10:01:20.137Z,98190.22
2023-02-03T10:03:04.167Z,98183.60
2023-02-03T10:04:28.121Z,98180.04
2023-02-03T10:05:42.006Z,98175.52
2023-02-03T10:06:47.183Z,98174.00
2023-02-03T10:08:28.519Z,98169.11
2023-02-03T10:09:52.366Z,98167.52
2023-02-03T10:11:11.736Z,98164.45
2023-02-03T10:12:37.402Z,98161.47
2023-02-03T10:14:13.705Z,98150.29
2023-02-03T10:15:27.734Z,98148.91
2023-02-03T10:17:31.533Z,98143.52
2023-02-03T10:18:52.388Z,98137.86
2023-02-03T10:20:02.155Z,98134.02
2023-02-03T10:21:19.445Z,98129.06
2023-02-03T10:22:28.382Z,98124.83
2023-02-03T10:23:35.442Z,98121.17
2023-02-03T10:25:00.271Z,98114.63
2023-02-03T10:26:07.557Z,98108.27
2023-02-03T10:27:18.442Z,98108.29
2023-02-03T10:28:23.886Z,98103.26
2023-02-03T10:29:35.077Z,98099.70
2023-02-03T10:30:45.421Z,98089.86
2023-02-03T10:31:48.044Z,98091.12
2023-02-03T10:33:00.535Z,98087.48
2023-02-03T10:34:12.229Z,98079.86
2023-02-03T10:35:14.492Z,98075.02
2023-02-03T10:36:35.349Z,98073.61
2023-02-03T10:37:49.431Z,98070.48
2023-02-03T10:39:31.024Z,98064.45
2023-02-03T10:40:32.925Z,98060.61
2023-02-03T10:41:35.028Z,98053.85
2023-02-03T10:42:56.389Z,98051.59
2023-02-03T10:44:00.140Z,98044.21
2023-02-03T10:45:04.331Z,98039.33
2023-02-03T10:46:06.303Z,98038.52
2023-02-03T10:47:27.186Z,98032.27
2023-02-03T10:48:29.937Z,98026.67
2023-02-03T10:49:31.837Z,98020.02
2023-02-03T10:50:35.989Z,98017.42
2023-02-03T10:51:50.403Z,98010.05
2023-02-03T10:52:52.453Z,98004.30
2023-02-03T10:53:54.442Z,97994.58
2023-02-03T10:54:56.556Z,97989.96
2023-02-03T10:56:04.665Z,97983.91
2023-02-03T10:57:16.642Z,97978.86
2023-02-03T10:58:27.453Z,97973.80
2023-02-03T10:59:42.154Z,97970.83
2023-02-03T11:00:44.142Z,97959.48
2023-02-03T11:01:49.161Z,97955.47
2023-02-03T11:03:26.151Z,97953.38
2023-02-03T11:04:33.595Z,97946.85
2023-02-03T11:05:35.495Z,97940.50
2023-02-03T11:06:56.241Z,97932.40
2023-02-03T11:07:58.186Z,97925.31
2023-02-03T11:09:00.776Z,97916.77
2023-02-03T11:10:02.669Z,97913.98
2023-02-03T11:11:31.327Z,97905.34
2023-02-03T11:12:33.213Z,97902.21
2023-02-03T11:13:35.420Z,97894.02
2023-02-03T11:14:40.606Z,97895.95
2023-02-03T11:16:17.297Z,97891.86
2023-02-03T11:17:29.871Z,97882.13
2023-02-03T11:18:59.907Z,97870.98
2023-02-03T11:20:16.496Z,97864.31
2023-02-03T11:21:22.648Z,97859.97
2023-02-03T11:22:32.153Z,97856.01
2023-02-03T11:23:34.510Z,97854.88
2023-02-03T11:24:42.986Z,97852.13
2023-02-03T11:25:44.897Z,97847.49
2023-02-03T11:26:59.441Z,97837.11
2023-02-03T11:28:10.743Z,97838.04
2023-02-03T11:29:23.873Z,97832.83
2023-02-03T11:30:31.835Z,97832.54
2023-02-03T11:31:36.555Z,97829.02
2023-02-03T11:32:41.940Z,97826.70
2023-02-03T11:33:48.770Z,97820.80
2023-02-03T11:35:04.428Z,97823.69
2023-02-03T11:36:06.772Z,97817.81
2023-02-03T11:37:38.641Z,97817.86
2023-02-03T11:38:42.407Z,97812.11
2023-02-03T11:39:44.302Z,97806.41
2023-02-03T11:40:46.093Z,97807.08
2023-02-03T11:41:48.955Z,97804.30
2023-02-03T11:42:50.763Z,97797.61
2023-02-03T11:43:55.944Z,97794.58
2023-02-03T11:45:19.351Z,97790.42
2023-02-03T11:46:21.775Z,97781.23
2023-02-03T11:47:24.020Z,97782.59
2023-02-03T11:48:35.701Z,97780.58
2023-02-03T11:50:12.279Z,97780.88
2023-02-03T11:51:40.254Z,97769.01
2023-02-03T11:53:10.217Z,97757.80
2023-02-03T11:54:39.765Z,97754.89
2023-02-03T11:56:03.154Z,97749.09
2023-02-03T11:57:44.939Z,97742.21
2023-02-03T11:59:19.446Z,97733.20
2023-02-03T12:00:41.827Z,97723.60
2023-02-03T12:02:29.440Z,97717.53
2023-02-03T12:04:20.197Z,97706.50
2023-02-03T12:05:41.282Z,97704.02
2023-02-03T12:07:05.009Z,97703.80
2023-02-03T12:08:36.679Z,97702.10
2023-02-03T12:10:00.063Z,97693.77
2023-02-03T12:11:22.461Z,97687.22
2023-02-03T12:12:28.420Z,97682.16
2023-02-03T12:14:08.045Z,97678.86
2023-02-03T12:16:00.208Z,97671.05
2023-02-03T12:17:39.983Z,97662.72
2023-02-03T12:19:11.005Z,97661.80
2023-02-03T12:20:34.694Z,97659.23
2023-02-03T12:21:45.705Z,97655.02
2023-02-03T12:23:12.330Z,97650.94
2023-02-03T12:24:50.139Z,97647.36
2023-02-03T12:26:03.772Z,97642.50
2023-02-03T12:27:37.960Z,97637.30
2023-02-03T12:28:50.308Z,97636.26
2023-02-03T12:30:02.398Z,97631.14
2023-02-03T12:31:10.050Z,97628.48
2023-02-03T12:32:24.648Z,97621.20
2023-02-03T12:33:48.769Z,97612.58
2023-02-03T12:35:13.417Z,97602.31
2023-02-03T12:36:30.035Z,97597.73
2023-02-03T12:37:46.781Z,97592.89
2023-02-03T12:38:54.770Z,97588.94
2023-02-03T12:40:04.811Z,97585.21
2023-02-03T12:41:18.678Z,97576.44
2023-02-03T12:42:31.079Z,97572.46
2023-02-03T12:43:42.685Z,97564.93
2023-02-03T12:44:57.729Z,97558.88
2023-02-03T12:46:07.669Z,97556.35
2023-02-03T12:47:30.557Z,97557.00
2023-02-03T12:48:48.481Z,97554.71
2023-02-03T12:50:05.565Z,97552.07
2023-02-03T12:51:23.875Z,97548.21
2023-02-03T12:52:39.545Z,97542.54
2023-02-03T12:53:50.186Z,97535.45
2023-02-03T12:55:08.232Z,97538.59
2023-02-03T12:56:24.547Z,97532.75
2023-02-03T12:58:01.929Z,97531.85
2023-02-03T12:59:15.960Z,97524.64
2023-02-03T13:00:37.007Z,97516.98
2023-02-03T13:01:54.976Z,97515.14
2023-02-03T13:03:06.278Z,97507.29
2023-02-03T13:04:18.650Z,97504.00
2023-02-03T13:05:36.022Z,97493.73
2023-02-03T13:07:07.246Z,97490.85
2023-02-03T13:08:18.158Z,97479.52
2023-02-03T13:09:48.228Z,97482.81
2023-02-03T13:11:15.402Z,97484.36
2023-02-03T13:12:34.262Z,97477.78
2023-02-03T13:13:44.468Z,97478.98
2023-02-03T13:15:03.871Z,97478.81
2023-02-03T13:16:11.682Z,97470.46
2023-02-03T13:17:18.701Z,97453.59
2023-02-03T13:18:29.616Z,97445.88